Station History

Weather Underground - logo

Station Historical Data
Daily Summary for January 20, 2018 Units:  English    Metric   Both
« Previous Day
Next Day »
Daily Weekly Monthly Yearly Custom
  High: Low: Average:
Temperature: 51.1 °F 34.5 °F 42 °F
Dew Point: 42.3 °F 32.7 °F 38.7 °F
Humidity: 96 % 71 % 89 %
Wind Speed: 9.2 mph 0.0 mph 0.6 mph
Wind Gust: 9.2 mph - -
Wind:- - South
Pressure: 30.30 in 30.06 in -
Precipitation: 0.00 in    
Historical Graphs
 
 
Tabular Data for January 20, 2018
Time Temperature Dew Point Pressure Wind Wind Speed Wind Gust Humidity Rainfall Rate (Hourly)
00:00 40.2 °F 38.9 °F 30.06 in Calm     95 % 0.00 in
00:05 40.2 °F 38.9 °F 30.06 in Calm     95 % 0.00 in
00:10 40.3 °F 39.0 °F 30.06 in Calm     95 % 0.00 in
00:15 40.3 °F 39.0 °F 30.06 in Calm     95 % 0.00 in
00:20 40.1 °F 38.8 °F 30.06 in Calm     95 % 0.00 in
00:26 39.7 °F 38.1 °F 30.06 in Calm     94 % 0.00 in
00:30 39.4 °F 37.8 °F 30.06 in West 1.2 mph 1.2 mph 94 % 0.00 in
00:36 39.4 °F 38.1 °F 30.06 in Calm     95 % 0.00 in
00:41 39.6 °F 38.3 °F 30.06 in Calm     95 % 0.00 in
00:46 39.4 °F 38.1 °F 30.06 in Calm     95 % 0.00 in
00:51 39.1 °F 37.5 °F 30.06 in Calm     94 % 0.00 in
00:56 38.7 °F 37.1 °F 30.06 in Calm     94 % 0.00 in
01:01 38.6 °F 37.0 °F 30.06 in Calm     94 % 0.00 in
01:06 38.5 °F 37.2 °F 30.06 in Calm     95 % 0.00 in
01:11 38.4 °F 37.1 °F 30.06 in Calm     95 % 0.00 in
01:16 38.3 °F 37.0 °F 30.06 in Calm     95 % 0.00 in
01:21 38.3 °F 37.0 °F 30.06 in Calm     95 % 0.00 in
01:26 38.1 °F 36.8 °F 30.06 in Calm     95 % 0.00 in
01:31 38.1 °F 36.8 °F 30.06 in Calm     95 % 0.00 in
01:36 37.9 °F 36.6 °F 30.06 in Calm     95 % 0.00 in
01:41 37.8 °F 36.5 °F 30.06 in Calm     95 % 0.00 in
01:46 37.7 °F 36.4 °F 30.06 in Calm     95 % 0.00 in
01:51 37.7 °F 36.4 °F 30.06 in Calm     95 % 0.00 in
01:56 37.7 °F 36.4 °F 30.06 in Calm     95 % 0.00 in
02:01 37.7 °F 36.4 °F 30.06 in Calm     95 % 0.00 in
02:06 37.8 °F 36.5 °F 30.06 in West 9.2 mph 9.2 mph 95 % 0.00 in
02:11 37.9 °F 36.6 °F 30.06 in Calm     95 % 0.00 in
02:16 37.8 °F 36.5 °F 30.06 in Calm     95 % 0.00 in
02:21 37.7 °F 36.4 °F 30.06 in Calm     95 % 0.00 in
02:26 37.8 °F 36.5 °F 30.06 in Calm     95 % 0.00 in
02:31 37.7 °F 36.4 °F 30.06 in Calm     95 % 0.00 in
02:36 37.8 °F 36.5 °F 30.06 in Calm     95 % 0.00 in
02:41 37.7 °F 36.4 °F 30.07 in Calm     95 % 0.00 in
02:46 37.6 °F 36.3 °F 30.06 in Calm     95 % 0.00 in
02:51 37.4 °F 36.1 °F 30.06 in Calm     95 % 0.00 in
02:56 37.3 °F 36.0 °F 30.06 in Calm     95 % 0.00 in
03:01 37.2 °F 35.9 °F 30.06 in Calm     95 % 0.00 in
03:06 37.3 °F 36.0 °F 30.06 in Calm     95 % 0.00 in
03:11 37.4 °F 36.1 °F 30.06 in Calm     95 % 0.00 in
03:16 37.3 °F 36.0 °F 30.06 in Calm     95 % 0.00 in
03:21 37.2 °F 35.9 °F 30.06 in Calm     95 % 0.00 in
03:26 37.2 °F 35.9 °F 30.06 in Calm     95 % 0.00 in
03:31 37.2 °F 35.9 °F 30.06 in Calm     95 % 0.00 in
03:36 36.9 °F 35.6 °F 30.06 in Calm     95 % 0.00 in
03:41 36.7 °F 35.4 °F 30.06 in Calm     95 % 0.00 in
03:46 36.6 °F 35.3 °F 30.06 in Calm     95 % 0.00 in
03:51 36.4 °F 35.1 °F 30.06 in Calm     95 % 0.00 in
03:56 36.3 °F 35.0 °F 30.06 in Calm     95 % 0.00 in
04:01 36.1 °F 34.8 °F 30.06 in Calm     95 % 0.00 in
04:06 36.0 °F 34.7 °F 30.06 in Calm     95 % 0.00 in
04:11 35.9 °F 34.6 °F 30.07 in Calm     95 % 0.00 in
04:16 35.8 °F 34.5 °F 30.07 in Calm     95 % 0.00 in
04:21 35.6 °F 34.3 °F 30.07 in Calm     95 % 0.00 in
04:25 35.7 °F 34.4 °F 30.07 in Calm     95 % 0.00 in
04:30 35.9 °F 34.6 °F 30.07 in Calm     95 % 0.00 in
04:35 35.9 °F 34.9 °F 30.07 in Calm     96 % 0.00 in
04:40 36.2 °F 35.2 °F 30.07 in Calm     96 % 0.00 in
04:45 36.5 °F 35.5 °F 30.08 in Calm     96 % 0.00 in
04:50 36.7 °F 35.7 °F 30.08 in Calm     96 % 0.00 in
04:55 36.9 °F 35.9 °F 30.08 in Calm     96 % 0.00 in
05:00 37.1 °F 36.1 °F 30.08 in Calm     96 % 0.00 in
05:05 37.3 °F 36.3 °F 30.08 in Calm     96 % 0.00 in
05:10 37.5 °F 36.5 °F 30.08 in Calm     96 % 0.00 in
05:15 37.7 °F 36.7 °F 30.09 in Calm     96 % 0.00 in
05:20 37.9 °F 36.9 °F 30.09 in Calm     96 % 0.00 in
05:25 38.2 °F 37.2 °F 30.09 in Calm     96 % 0.00 in
05:30 38.6 °F 37.6 °F 30.09 in Calm     96 % 0.00 in
05:35 38.9 °F 37.9 °F 30.09 in Calm     96 % 0.00 in
05:40 39.1 °F 38.1 °F 30.09 in Calm     96 % 0.00 in
05:45 39.2 °F 38.2 °F 30.10 in Calm     96 % 0.00 in
05:50 39.3 °F 38.3 °F 30.10 in Calm     96 % 0.00 in
05:55 39.4 °F 38.4 °F 30.10 in Calm     96 % 0.00 in
06:00 39.6 °F 38.6 °F 30.10 in Calm     96 % 0.00 in
06:05 39.7 °F 38.7 °F 30.10 in Calm     96 % 0.00 in
06:10 39.7 °F 38.7 °F 30.11 in Calm     96 % 0.00 in
06:15 39.8 °F 38.8 °F 30.11 in Calm     96 % 0.00 in
06:20 39.9 °F 38.9 °F 30.11 in West 1.2 mph   96 % 0.00 in
06:25 39.9 °F 38.9 °F 30.11 in West 1.2 mph   96 % 0.00 in
06:30 39.9 °F 38.9 °F 30.11 in Calm     96 % 0.00 in
06:35 40.0 °F 39.0 °F 30.11 in Calm     96 % 0.00 in
06:40 40.0 °F 39.0 °F 30.11 in Calm     96 % 0.00 in
06:45 40.1 °F 39.1 °F 30.11 in West 1.2 mph 1.2 mph 96 % 0.00 in
06:50 40.2 °F 39.2 °F 30.11 in Calm     96 % 0.00 in
06:55 40.2 °F 39.2 °F 30.11 in Calm     96 % 0.00 in
07:01 40.2 °F 39.2 °F 30.11 in Calm     96 % 0.00 in
07:06 40.3 °F 39.3 °F 30.11 in West 1.2 mph 1.2 mph 96 % 0.00 in
07:11 40.3 °F 39.3 °F 30.12 in Calm     96 % 0.00 in
07:16 40.4 °F 39.4 °F 30.12 in West 1.0 mph   96 % 0.00 in
07:21 40.4 °F 39.4 °F 30.12 in West 1.2 mph   96 % 0.00 in
07:26 40.5 °F 39.4 °F 30.12 in Calm     96 % 0.00 in
07:31 40.5 °F 39.4 °F 30.12 in West 1.2 mph   96 % 0.00 in
07:36 40.6 °F 39.5 °F 30.12 in Calm     96 % 0.00 in
07:41 40.6 °F 39.5 °F 30.13 in Calm     96 % 0.00 in
07:46 40.7 °F 39.6 °F 30.13 in Calm     96 % 0.00 in
07:51 40.7 °F 39.6 °F 30.13 in Calm     96 % 0.00 in
07:56 40.8 °F 39.7 °F 30.14 in WSW 1.2 mph   96 % 0.00 in
08:01 40.9 °F 39.8 °F 30.14 in Calm     96 % 0.00 in
08:06 41.1 °F 40.0 °F 30.15 in Calm     96 % 0.00 in
08:11 41.2 °F 40.1 °F 30.15 in West 1.2 mph 1.2 mph 96 % 0.00 in
08:16 41.2 °F 40.1 °F 30.15 in Calm     96 % 0.00 in
08:21 41.3 °F 40.0 °F 30.16 in WSW 1.2 mph 1.2 mph 95 % 0.00 in
08:26 41.5 °F 40.4 °F 30.16 in Calm   0.1 mph 96 % 0.00 in
08:31 41.5 °F 40.2 °F 30.17 in SSE 1.2 mph   95 % 0.00 in
08:36 41.6 °F 40.3 °F 30.17 in Calm     95 % 0.00 in
08:41 41.5 °F 40.2 °F 30.17 in SSE 2.3 mph 2.3 mph 95 % 0.00 in
08:46 41.4 °F 40.1 °F 30.17 in SE 2.3 mph 2.3 mph 95 % 0.00 in
08:51 41.4 °F 40.1 °F 30.18 in SE 1.2 mph 1.2 mph 95 % 0.00 in
08:56 41.6 °F 40.3 °F 30.18 in Calm     95 % 0.00 in
09:01 41.9 °F 40.6 °F 30.18 in Calm     95 % 0.00 in
09:06 42.2 °F 40.9 °F 30.18 in Calm     95 % 0.00 in
09:11 42.5 °F 41.2 °F 30.18 in SE 1.2 mph 1.2 mph 95 % 0.00 in
09:16 42.7 °F 41.1 °F 30.19 in SE 1.2 mph 1.2 mph 94 % 0.00 in
09:21 42.8 °F 41.2 °F 30.19 in Calm     94 % 0.00 in
09:26 43.3 °F 41.7 °F 30.19 in Calm     94 % 0.00 in
09:31 43.9 °F 42.0 °F 30.19 in Calm     93 % 0.00 in
09:36 44.1 °F 42.2 °F 30.19 in SSW 1.2 mph   93 % 0.00 in
09:41 44.2 °F 41.7 °F 30.19 in Calm     91 % 0.00 in
09:46 44.3 °F 41.8 °F 30.20 in Calm     91 % 0.00 in
09:51 44.1 °F 41.4 °F 30.20 in NW 2.0 mph 2.0 mph 90 % 0.00 in
09:56 44.0 °F 41.0 °F 30.20 in WSW 1.2 mph   89 % 0.00 in
10:01 43.8 °F 40.5 °F 30.20 in WSW 1.2 mph 1.2 mph 88 % 0.00 in
10:06 43.7 °F 40.4 °F 30.20 in Calm   0.6 mph 88 % 0.00 in
10:11 43.6 °F 40.6 °F 30.21 in Calm     89 % 0.00 in
10:16 43.7 °F 40.4 °F 30.20 in Calm   0.3 mph 88 % 0.00 in
10:21 43.7 °F 40.4 °F 30.21 in West 1.2 mph 1.2 mph 88 % 0.00 in
10:26 43.7 °F 40.4 °F 30.21 in NW 1.2 mph 1.2 mph 88 % 0.00 in
10:31 43.7 °F 40.4 °F 30.21 in WNW 1.2 mph 1.2 mph 88 % 0.00 in
10:36 44.0 °F 40.7 °F 30.21 in NNW 2.3 mph 2.3 mph 88 % 0.00 in
10:41 44.1 °F 40.5 °F 30.21 in NW 3.5 mph 3.5 mph 87 % 0.00 in
10:46 44.4 °F 40.5 °F 30.21 in WNW 1.2 mph 1.2 mph 86 % 0.00 in
10:51 44.6 °F 40.7 °F 30.21 in WNW 1.2 mph 1.2 mph 86 % 0.00 in
10:56 44.9 °F 40.7 °F 30.20 in NNW 1.0 mph   85 % 0.00 in
11:01 45.2 °F 41.3 °F 30.20 in NW 1.2 mph 1.2 mph 86 % 0.00 in
11:06 45.6 °F 41.4 °F 30.20 in Calm     85 % 0.00 in
11:11 46.0 °F 41.4 °F 30.20 in WNW 1.2 mph 1.2 mph 84 % 0.00 in
11:16 46.4 °F 41.8 °F 30.20 in NNW 1.0 mph 1.0 mph 84 % 0.00 in
11:21 46.7 °F 42.1 °F 30.20 in Calm     84 % 0.00 in
11:26 46.8 °F 41.6 °F 30.20 in NNW 2.3 mph 2.3 mph 82 % 0.00 in
11:31 47.1 °F 41.9 °F 30.19 in NNW 1.2 mph 1.2 mph 82 % 0.00 in
11:36 47.1 °F 41.6 °F 30.19 in NNE 1.2 mph   81 % 0.00 in
11:41 47.0 °F 41.5 °F 30.19 in NW 1.2 mph   81 % 0.00 in
11:46 46.8 °F 41.3 °F 30.19 in NW 2.3 mph 2.3 mph 81 % 0.00 in
11:51 46.9 °F 41.7 °F 30.19 in Calm     82 % 0.00 in
11:56 47.0 °F 41.1 °F 30.19 in WNW 2.3 mph 2.3 mph 80 % 0.00 in
12:01 46.8 °F 41.0 °F 30.19 in Calm     80 % 0.00 in
12:06 47.1 °F 41.2 °F 30.18 in Calm     80 % 0.00 in
12:11 47.5 °F 41.6 °F 30.18 in WNW 1.2 mph   80 % 0.00 in
12:16 47.8 °F 41.3 °F 30.18 in Calm     78 % 0.00 in
12:21 48.0 °F 42.1 °F 30.18 in SE 1.2 mph 1.2 mph 80 % 0.00 in
12:26 48.2 °F 42.0 °F 30.18 in SSE 1.2 mph 1.2 mph 79 % 0.00 in
12:31 48.3 °F 42.1 °F 30.18 in Calm     79 % 0.00 in
12:36 48.4 °F 42.2 °F 30.17 in East 2.3 mph 2.3 mph 79 % 0.00 in
12:41 48.5 °F 42.3 °F 30.17 in East 2.3 mph 2.3 mph 79 % 0.00 in
12:46 48.5 °F 41.6 °F 30.17 in East 2.3 mph 2.3 mph 77 % 0.00 in
12:51 48.2 °F 41.7 °F 30.17 in East 3.5 mph 3.5 mph 78 % 0.00 in
12:56 48.1 °F 41.6 °F 30.17 in East 3.5 mph 3.5 mph 78 % 0.00 in
13:01 48.1 °F 41.6 °F 30.17 in East 1.2 mph 1.2 mph 78 % 0.00 in
13:06 48.0 °F 41.5 °F 30.17 in East 1.2 mph 1.2 mph 78 % 0.00 in
13:11 48.1 °F 41.6 °F 30.17 in ENE 3.5 mph 3.5 mph 78 % 0.00 in
13:16 48.3 °F 42.1 °F 30.17 in SSE 1.2 mph 1.2 mph 79 % 0.00 in
13:21 48.4 °F 41.9 °F 30.17 in ESE 2.3 mph 2.3 mph 78 % 0.00 in
13:26 48.4 °F 42.2 °F 30.17 in SE 3.5 mph 3.5 mph 79 % 0.00 in
13:31 48.4 °F 41.9 °F 30.17 in East 1.2 mph 1.2 mph 78 % 0.00 in
13:36 48.4 °F 41.5 °F 30.17 in East 3.5 mph 3.5 mph 77 % 0.00 in
13:41 48.4 °F 41.9 °F 30.17 in SE 1.2 mph 1.2 mph 78 % 0.00 in
13:46 48.6 °F 41.7 °F 30.17 in NE 3.5 mph 3.5 mph 77 % 0.00 in
13:51 48.6 °F 41.4 °F 30.18 in SE 3.5 mph 3.5 mph 76 % 0.00 in
13:56 48.9 °F 42.0 °F 30.18 in SE 1.2 mph 1.2 mph 77 % 0.00 in
14:01 49.2 °F 42.3 °F 30.18 in ESE 3.0 mph 3.0 mph 77 % 0.00 in
14:06 49.7 °F 42.1 °F 30.18 in SE 5.0 mph 5.0 mph 75 % 0.00 in
14:11 49.6 °F 42.0 °F 30.18 in ESE 1.2 mph 1.2 mph 75 % 0.00 in
14:16 49.6 °F 41.7 °F 30.18 in SE 1.2 mph 1.2 mph 74 % 0.00 in
14:21 49.7 °F 42.1 °F 30.18 in SE 1.0 mph 1.0 mph 75 % 0.00 in
14:26 49.9 °F 41.9 °F 30.18 in South 1.2 mph   74 % 0.00 in
14:31 50.2 °F 41.9 °F 30.18 in SE 2.3 mph 2.3 mph 73 % 0.00 in
14:36 50.2 °F 41.9 °F 30.18 in SE 1.2 mph   73 % 0.00 in
14:41 50.2 °F 41.9 °F 30.18 in SE 1.2 mph 1.2 mph 73 % 0.00 in
14:46 50.4 °F 41.7 °F 30.18 in Calm     72 % 0.00 in
14:51 50.9 °F 41.8 °F 30.18 in SE 3.5 mph 3.5 mph 71 % 0.00 in
14:56 51.1 °F 42.0 °F 30.19 in SE 2.0 mph 2.0 mph 71 % 0.00 in
15:01 51.0 °F 42.3 °F 30.19 in SE 1.2 mph 1.2 mph 72 % 0.00 in
15:06 51.0 °F 41.9 °F 30.19 in ESE 3.0 mph 3.0 mph 71 % 0.00 in
15:11 51.0 °F 41.9 °F 30.19 in SSE 2.0 mph 2.0 mph 71 % 0.00 in
15:16 50.9 °F 41.8 °F 30.19 in SE 1.2 mph 1.2 mph 71 % 0.00 in
15:21 50.6 °F 41.9 °F 30.19 in SSE 3.5 mph 3.5 mph 72 % 0.00 in
15:26 50.3 °F 42.0 °F 30.19 in SSE 2.3 mph 2.3 mph 73 % 0.00 in
15:31 50.1 °F 42.1 °F 30.20 in SE 1.2 mph 1.2 mph 74 % 0.00 in
15:36 50.2 °F 41.5 °F 30.20 in ESE 2.3 mph 2.3 mph 72 % 0.00 in
15:41 50.1 °F 41.4 °F 30.20 in SSE 1.0 mph 1.0 mph 72 % 0.00 in
15:46 50.2 °F 41.2 °F 30.20 in South 2.3 mph 2.3 mph 71 % 0.00 in
15:51 50.2 °F 41.5 °F 30.20 in Calm     72 % 0.00 in
15:56 50.1 °F 41.4 °F 30.20 in South 1.2 mph 1.2 mph 72 % 0.00 in
16:01 50.1 °F 41.4 °F 30.21 in ESE 1.2 mph 1.2 mph 72 % 0.00 in
16:06 50.1 °F 41.4 °F 30.21 in SSE 3.5 mph 3.5 mph 72 % 0.00 in
16:11 50.0 °F 41.3 °F 30.21 in SSW 1.2 mph   72 % 0.00 in
16:16 49.8 °F 41.1 °F 30.21 in SE 1.2 mph   72 % 0.00 in
16:21 49.6 °F 40.9 °F 30.21 in ESE 1.2 mph 1.2 mph 72 % 0.00 in
16:26 49.5 °F 41.2 °F 30.22 in Calm     73 % 0.00 in
16:31 49.3 °F 41.0 °F 30.22 in SE 1.2 mph 1.2 mph 73 % 0.00 in
16:36 49.0 °F 41.1 °F 30.22 in SE 1.2 mph 1.2 mph 74 % 0.00 in
16:41 48.8 °F 40.9 °F 30.22 in Calm     74 % 0.00 in
16:46 48.5 °F 40.9 °F 30.22 in Calm     75 % 0.00 in
16:51 48.2 °F 41.0 °F 30.22 in Calm     76 % 0.00 in
16:56 47.8 °F 40.9 °F 30.22 in Calm     77 % 0.00 in
17:01 47.6 °F 40.7 °F 30.22 in Calm     77 % 0.00 in
17:06 47.4 °F 40.9 °F 30.22 in Calm     78 % 0.00 in
17:11 47.1 °F 40.6 °F 30.22 in Calm     78 % 0.00 in
17:16 46.7 °F 40.5 °F 30.23 in Calm     79 % 0.00 in
17:21 46.3 °F 40.1 °F 30.23 in Calm     79 % 0.00 in
17:26 46.1 °F 39.9 °F 30.23 in Calm     79 % 0.00 in
17:31 45.9 °F 40.1 °F 30.23 in Calm     80 % 0.00 in
17:36 45.6 °F 39.8 °F 30.23 in Calm     80 % 0.00 in
17:41 45.2 °F 39.7 °F 30.23 in Calm     81 % 0.00 in
17:46 44.7 °F 39.5 °F 30.23 in Calm     82 % 0.00 in
17:51 44.3 °F 39.5 °F 30.23 in Calm     83 % 0.00 in
17:56 44.0 °F 39.5 °F 30.23 in Calm     84 % 0.00 in
18:01 43.8 °F 39.6 °F 30.24 in Calm     85 % 0.00 in
18:06 43.7 °F 39.5 °F 30.24 in Calm     85 % 0.00 in
18:11 43.3 °F 39.1 °F 30.24 in Calm     85 % 0.00 in
18:16 43.0 °F 39.1 °F 30.24 in Calm     86 % 0.00 in
18:21 42.7 °F 39.1 °F 30.24 in Calm     87 % 0.00 in
18:26 42.2 °F 38.6 °F 30.24 in Calm     87 % 0.00 in
18:31 41.9 °F 38.6 °F 30.24 in Calm     88 % 0.00 in
18:36 41.6 °F 38.6 °F 30.24 in Calm     89 % 0.00 in
18:41 41.5 °F 38.5 °F 30.23 in Calm     89 % 0.00 in
18:46 41.3 °F 38.3 °F 30.24 in Calm     89 % 0.00 in
18:51 41.0 °F 38.3 °F 30.23 in Calm     90 % 0.00 in
18:56 40.9 °F 38.2 °F 30.23 in Calm     90 % 0.00 in
19:01 40.7 °F 38.3 °F 30.23 in Calm     91 % 0.00 in
19:06 40.8 °F 38.4 °F 30.23 in Calm     91 % 0.00 in
19:11 40.8 °F 38.4 °F 30.23 in Calm     91 % 0.00 in
19:16 40.7 °F 38.3 °F 30.23 in Calm     91 % 0.00 in
19:21 40.3 °F 37.9 °F 30.23 in Calm     91 % 0.00 in
19:26 40.0 °F 37.6 °F 30.23 in Calm     91 % 0.00 in
19:31 39.8 °F 37.4 °F 30.23 in Calm     91 % 0.00 in
19:36 39.6 °F 37.2 °F 30.23 in Calm     91 % 0.00 in
19:41 39.3 °F 36.9 °F 30.23 in Calm     91 % 0.00 in
19:46 39.2 °F 37.1 °F 30.23 in Calm     92 % 0.00 in
19:51 39.1 °F 37.0 °F 30.23 in Calm     92 % 0.00 in
19:56 39.3 °F 37.4 °F 30.23 in Calm     93 % 0.00 in
20:01 39.2 °F 37.3 °F 30.24 in Calm     93 % 0.00 in
20:06 39.2 °F 37.3 °F 30.24 in Calm     93 % 0.00 in
20:11 39.2 °F 37.3 °F 30.24 in Calm     93 % 0.00 in
20:16 39.1 °F 37.2 °F 30.24 in Calm     93 % 0.00 in
20:21 39.0 °F 37.1 °F 30.24 in Calm     93 % 0.00 in
20:26 39.2 °F 37.3 °F 30.24 in Calm     93 % 0.00 in
20:31 39.2 °F 37.3 °F 30.25 in Calm     93 % 0.00 in
20:36 39.2 °F 37.3 °F 30.25 in Calm     93 % 0.00 in
20:41 39.0 °F 37.1 °F 30.25 in Calm     93 % 0.00 in
20:46 38.9 °F 37.0 °F 30.25 in Calm     93 % 0.00 in
20:51 38.9 °F 37.0 °F 30.25 in Calm     93 % 0.00 in
20:56 39.0 °F 37.1 °F 30.25 in Calm     93 % 0.00 in
21:01 39.1 °F 37.0 °F 30.26 in Calm     92 % 0.00 in
21:06 39.3 °F 37.2 °F 30.26 in Calm     92 % 0.00 in
21:11 39.3 °F 36.9 °F 30.26 in SE 1.2 mph   91 % 0.00 in
21:16 39.3 °F 36.9 °F 30.26 in Calm     91 % 0.00 in
21:21 39.3 °F 36.6 °F 30.26 in Calm     90 % 0.00 in
21:26 39.2 °F 36.5 °F 30.26 in Calm     90 % 0.00 in
21:31 38.9 °F 36.2 °F 30.26 in Calm     90 % 0.00 in
21:36 38.5 °F 35.8 °F 30.27 in Calm     90 % 0.00 in
21:41 38.0 °F 35.3 °F 30.27 in Calm     90 % 0.00 in
21:46 37.6 °F 35.2 °F 30.27 in Calm     91 % 0.00 in
21:51 37.3 °F 34.9 °F 30.27 in Calm     91 % 0.00 in
21:56 37.1 °F 35.0 °F 30.27 in Calm     92 % 0.00 in
22:01 36.9 °F 34.8 °F 30.27 in Calm     92 % 0.00 in
22:06 36.9 °F 35.1 °F 30.28 in Calm     93 % 0.00 in
22:11 36.9 °F 35.1 °F 30.28 in Calm     93 % 0.00 in
22:16 37.0 °F 35.2 °F 30.28 in SE 1.2 mph 1.2 mph 93 % 0.00 in
22:26 37.6 °F 36.0 °F 30.28 in Calm     94 % 0.00 in
22:31 37.7 °F 35.9 °F 30.28 in Calm     93 % 0.00 in
22:36 37.6 °F 35.8 °F 30.28 in Calm     93 % 0.00 in
22:41 37.2 °F 35.1 °F 30.28 in Calm     92 % 0.00 in
22:46 36.7 °F 34.6 °F 30.28 in Calm     92 % 0.00 in
22:51 36.2 °F 34.1 °F 30.28 in Calm     92 % 0.00 in
22:56 35.8 °F 33.7 °F 30.29 in Calm     92 % 0.00 in
23:01 35.7 °F 33.9 °F 30.29 in Calm     93 % 0.00 in
23:06 35.6 °F 33.8 °F 30.29 in Calm     93 % 0.00 in
23:11 35.3 °F 33.5 °F 30.29 in Calm     93 % 0.00 in
23:16 35.1 °F 33.3 °F 30.29 in Calm     93 % 0.00 in
23:21 34.8 °F 33.0 °F 30.30 in Calm     93 % 0.00 in
23:26 34.7 °F 32.9 °F 30.30 in Calm     93 % 0.00 in
23:31 34.6 °F 32.8 °F 30.30 in Calm     93 % 0.00 in
23:36 34.5 °F 32.7 °F 30.30 in Calm     93 % 0.00 in
23:41 34.6 °F 33.1 °F 30.30 in Calm     94 % 0.00 in
23:46 34.7 °F 33.2 °F 30.30 in Calm     94 % 0.00 in
Park Place, Exeter, Tulare County, California, USA
Compliments of Weather Underground - 2.75 mb